createdAt,value
2018-03-06T00:01:24.340Z,99063.05
2018-03-06T00:03:50.134Z,99067.58
2018-03-06T00:06:15.940Z,99067.42
2018-03-06T00:08:41.742Z,99069.25
2018-03-06T00:11:07.542Z,99067.78
2018-03-06T00:13:33.355Z,99066.69
2018-03-06T00:15:59.152Z,99068.70
2018-03-06T00:18:24.943Z,99072.62
2018-03-06T00:20:50.863Z,99068.22
2018-03-06T00:23:16.656Z,99064.98
2018-03-06T00:25:42.442Z,99072.41
2018-03-06T00:28:08.440Z,99075.97
2018-03-06T00:30:34.239Z,99075.70
2018-03-06T00:33:00.032Z,99072.38
2018-03-06T00:35:25.839Z,99067.48
2018-03-06T00:37:51.640Z,99066.11
2018-03-06T00:40:17.436Z,99065.71
2018-03-06T00:42:43.395Z,99067.61
2018-03-06T00:45:09.191Z,99063.65
2018-03-06T00:47:34.987Z,99064.31
2018-03-06T00:50:00.924Z,99067.16
2018-03-06T00:52:26.731Z,99064.74
2018-03-06T00:54:52.525Z,99061.45
2018-03-06T00:57:18.567Z,99048.08
2018-03-06T00:59:44.367Z,99052.50
2018-03-06T01:02:10.158Z,99049.78
2018-03-06T01:04:35.964Z,99041.52
2018-03-06T01:07:01.762Z,99047.14
2018-03-06T01:09:27.558Z,99050.04
2018-03-06T01:11:53.391Z,99048.78
2018-03-06T01:14:19.188Z,99045.47
2018-03-06T01:16:44.995Z,99047.36
2018-03-06T01:19:10.807Z,99043.57
2018-03-06T01:21:36.588Z,99036.89
2018-03-06T01:24:02.384Z,99044.27
2018-03-06T01:26:28.578Z,99039.16
2018-03-06T01:28:54.363Z,99037.57
2018-03-06T01:31:20.167Z,99032.37
2018-03-06T01:33:45.971Z,99030.13
2018-03-06T01:36:11.767Z,99023.06
2018-03-06T01:38:37.536Z,99022.38
2018-03-06T01:41:03.372Z,99026.83
2018-03-06T01:43:29.171Z,99024.87
2018-03-06T01:45:54.957Z,99020.10
2018-03-06T01:48:20.760Z,99023.78
2018-03-06T01:50:46.576Z,99020.89
2018-03-06T01:53:12.374Z,99018.59
2018-03-06T01:55:38.166Z,99015.02
2018-03-06T01:58:03.992Z,99017.27
2018-03-06T02:00:29.796Z,99016.75
2018-03-06T02:02:55.590Z,99015.04
2018-03-06T02:05:21.411Z,99006.47
2018-03-06T02:07:47.199Z,99011.03
2018-03-06T02:10:13.010Z,99006.07
2018-03-06T02:12:38.832Z,99000.98
2018-03-06T02:15:04.633Z,98999.19
2018-03-06T02:17:30.419Z,99001.28
2018-03-06T02:19:56.222Z,99002.71
2018-03-06T02:22:22.008Z,98999.16
2018-03-06T02:24:47.798Z,98994.18
2018-03-06T02:27:13.615Z,98998.12
2018-03-06T02:29:39.396Z,98997.04
2018-03-06T02:32:05.217Z,99000.98
2018-03-06T02:34:31.023Z,98997.52
2018-03-06T02:36:56.830Z,98993.20
2018-03-06T02:39:22.824Z,98993.98
2018-03-06T02:41:48.644Z,98994.74
2018-03-06T02:44:14.448Z,98996.20
2018-03-06T02:46:40.264Z,98993.70
2018-03-06T02:49:06.059Z,98984.82
2018-03-06T02:51:31.860Z,98978.34
2018-03-06T02:53:58.048Z,98982.44
2018-03-06T02:56:23.842Z,98983.44
2018-03-06T02:58:49.638Z,98982.63
2018-03-06T03:01:15.454Z,98980.66
2018-03-06T03:03:41.243Z,98977.80
2018-03-06T03:06:07.060Z,98971.41
2018-03-06T03:08:32.869Z,98978.41
2018-03-06T03:10:59.599Z,98980.50
2018-03-06T03:13:25.440Z,98982.03
2018-03-06T03:15:51.239Z,98978.92
2018-03-06T03:18:17.031Z,98976.28
2018-03-06T03:20:42.846Z,98976.02
2018-03-06T03:23:08.643Z,98977.69
2018-03-06T03:25:34.442Z,98975.34
2018-03-06T03:28:00.625Z,98974.52
2018-03-06T03:30:26.430Z,98969.11
2018-03-06T03:32:52.216Z,98964.92
2018-03-06T03:35:18.027Z,98959.42
2018-03-06T03:37:43.807Z,98953.03
2018-03-06T03:40:09.602Z,98963.81
2018-03-06T03:42:35.540Z,98957.55
2018-03-06T03:45:01.344Z,98961.17
2018-03-06T03:47:27.132Z,98956.61
2018-03-06T03:49:52.950Z,98960.14
2018-03-06T03:52:19.663Z,98960.05
2018-03-06T03:54:45.444Z,98961.76
2018-03-06T03:57:12.177Z,98966.28
2018-03-06T03:59:37.986Z,98958.64
2018-03-06T04:02:03.808Z,98956.77
2018-03-06T04:04:29.944Z,98956.84
2018-03-06T04:06:55.755Z,98954.41
2018-03-06T04:09:21.543Z,98955.27
2018-03-06T04:11:47.338Z,98958.72
2018-03-06T04:14:13.126Z,98958.93
2018-03-06T04:16:40.198Z,98960.55
2018-03-06T04:19:05.991Z,98965.48
2018-03-06T04:21:31.783Z,98960.42
2018-03-06T04:23:57.617Z,98967.16
2018-03-06T04:26:23.371Z,98964.94
2018-03-06T04:28:49.159Z,98966.23
2018-03-06T04:31:15.175Z,98960.33
2018-03-06T04:33:40.958Z,98957.16
2018-03-06T04:36:06.747Z,98951.34
2018-03-06T04:38:32.728Z,98947.59
2018-03-06T04:40:58.638Z,98944.28
2018-03-06T04:43:24.434Z,98945.77
2018-03-06T04:45:50.403Z,98949.48
2018-03-06T04:48:16.190Z,98944.16
2018-03-06T04:50:41.979Z,98949.22
2018-03-06T04:53:07.812Z,98949.06
2018-03-06T04:55:33.611Z,98936.11
2018-03-06T04:57:59.411Z,98938.73
2018-03-06T05:00:25.511Z,98941.08
2018-03-06T05:02:51.306Z,98942.48
2018-03-06T05:05:17.100Z,98940.55
2018-03-06T05:07:42.919Z,98944.60
2018-03-06T05:10:08.711Z,98943.19
2018-03-06T05:12:34.518Z,98942.17
2018-03-06T05:15:00.330Z,98949.25
2018-03-06T05:17:26.122Z,98942.53
2018-03-06T05:19:51.915Z,98941.90
2018-03-06T05:22:17.744Z,98944.21
2018-03-06T05:24:43.539Z,98948.20
2018-03-06T05:27:09.327Z,98945.48
2018-03-06T05:29:35.323Z,98950.06
2018-03-06T05:32:01.116Z,98947.96
2018-03-06T05:34:26.908Z,98939.42
2018-03-06T05:36:52.703Z,98941.95
2018-03-06T05:39:18.524Z,98940.33
2018-03-06T05:41:44.342Z,98938.61
2018-03-06T05:44:10.136Z,98936.16
2018-03-06T05:46:35.941Z,98938.03
2018-03-06T05:49:01.763Z,98936.64
2018-03-06T05:51:27.567Z,98927.23
2018-03-06T05:53:53.371Z,98927.77
2018-03-06T05:56:19.192Z,98939.84
2018-03-06T05:58:44.975Z,98938.70
2018-03-06T06:01:10.782Z,98934.59
2018-03-06T06:03:36.562Z,98944.96
2018-03-06T06:06:02.358Z,98939.77
2018-03-06T06:08:28.159Z,98933.69
2018-03-06T06:10:54.135Z,98931.16
2018-03-06T06:13:19.937Z,98931.96
2018-03-06T06:15:45.738Z,98940.13
2018-03-06T06:18:11.538Z,98938.83
2018-03-06T06:20:37.323Z,98946.58
2018-03-06T06:23:03.428Z,98942.11
2018-03-06T06:25:29.232Z,98942.44
2018-03-06T06:27:55.035Z,98938.61
2018-03-06T06:30:20.831Z,98941.48
2018-03-06T06:32:46.644Z,98942.80
2018-03-06T06:35:12.442Z,98941.17
2018-03-06T06:37:38.223Z,98943.56
2018-03-06T06:40:04.156Z,98946.58
2018-03-06T06:42:29.939Z,98945.53
2018-03-06T06:44:55.747Z,98945.92
2018-03-06T06:47:21.547Z,98946.84
2018-03-06T06:49:47.360Z,98945.66
2018-03-06T06:52:13.156Z,98945.70
2018-03-06T06:54:39.167Z,98949.20
2018-03-06T06:57:04.956Z,98951.28
2018-03-06T06:59:30.791Z,98945.54
2018-03-06T07:01:56.735Z,98948.89
2018-03-06T07:04:22.548Z,98952.79
2018-03-06T07:06:48.309Z,98952.56
2018-03-06T07:09:14.151Z,98950.09
2018-03-06T07:11:39.936Z,98950.98
2018-03-06T07:14:05.722Z,98957.98
2018-03-06T07:16:31.535Z,98952.89
2018-03-06T07:18:57.323Z,98954.48
2018-03-06T07:21:23.118Z,98966.50
2018-03-06T07:23:48.986Z,98973.20
2018-03-06T07:26:14.753Z,98963.56
2018-03-06T07:28:40.532Z,98970.38
2018-03-06T07:31:06.347Z,98971.31
2018-03-06T07:33:32.119Z,98968.19
2018-03-06T07:35:57.906Z,98965.03
2018-03-06T07:38:23.719Z,98948.86
2018-03-06T07:40:49.515Z,98967.97
2018-03-06T07:43:15.293Z,98970.47
2018-03-06T07:45:41.098Z,98973.90
2018-03-06T07:48:06.875Z,98964.05
2018-03-06T07:50:32.650Z,98953.80
2018-03-06T07:52:58.540Z,98964.73
2018-03-06T07:55:24.331Z,98962.09
2018-03-06T07:57:50.102Z,98964.59
2018-03-06T08:00:15.891Z,98954.33
2018-03-06T08:02:41.700Z,98957.77
2018-03-06T08:05:08.292Z,98956.45
2018-03-06T08:07:34.063Z,98955.30
2018-03-06T08:09:59.871Z,98954.53
2018-03-06T08:12:25.650Z,98954.09
2018-03-06T08:14:51.425Z,98954.23
2018-03-06T08:17:17.240Z,98960.36
2018-03-06T08:19:43.018Z,98963.31
2018-03-06T08:22:08.794Z,98956.41
2018-03-06T08:24:34.956Z,98947.58
2018-03-06T08:27:00.749Z,98947.27
2018-03-06T08:29:26.535Z,98950.78
2018-03-06T08:31:52.335Z,98952.95
2018-03-06T08:34:18.145Z,98953.98
2018-03-06T08:36:43.962Z,98954.91
2018-03-06T08:39:09.751Z,98958.89
2018-03-06T08:41:35.529Z,98962.73
2018-03-06T08:44:01.340Z,98961.05
2018-03-06T08:46:27.157Z,98964.55
2018-03-06T08:48:52.948Z,98968.36
2018-03-06T08:51:18.762Z,98967.82
2018-03-06T08:53:44.555Z,98968.22
2018-03-06T08:56:10.340Z,98968.16
2018-03-06T08:58:36.133Z,98966.08
2018-03-06T09:01:01.912Z,98960.46
2018-03-06T09:03:27.732Z,98962.75
2018-03-06T09:05:53.798Z,98965.95
2018-03-06T09:08:19.597Z,98963.28
2018-03-06T09:10:45.372Z,98964.72
2018-03-06T09:13:11.168Z,98965.23
2018-03-06T09:15:36.974Z,98965.13
2018-03-06T09:18:02.777Z,98956.53
2018-03-06T09:20:28.560Z,98962.89
2018-03-06T09:22:54.347Z,98955.84
2018-03-06T09:25:20.138Z,98956.92
2018-03-06T09:27:45.944Z,98965.31
2018-03-06T09:30:11.723Z,98964.90
2018-03-06T09:32:37.515Z,98961.98
2018-03-06T09:35:03.346Z,98961.81
2018-03-06T09:37:29.161Z,98961.27
2018-03-06T09:39:54.954Z,98965.68
2018-03-06T09:42:20.755Z,98961.14
2018-03-06T09:44:46.866Z,98956.17
2018-03-06T09:47:12.674Z,98958.87
2018-03-06T09:49:38.614Z,98952.37
2018-03-06T09:52:08.306Z,98937.24
2018-03-06T09:54:34.154Z,98943.31
2018-03-06T09:57:00.824Z,98937.75
2018-03-06T09:59:26.726Z,98936.81
2018-03-06T10:01:52.519Z,98940.38
2018-03-06T10:04:18.319Z,98947.55
2018-03-06T10:06:44.166Z,98942.75
2018-03-06T10:09:09.977Z,98937.16
2018-03-06T10:11:35.791Z,98932.27
2018-03-06T10:14:01.607Z,98929.94
2018-03-06T10:16:27.411Z,98924.33
2018-03-06T10:18:53.317Z,98926.40
2018-03-06T10:21:19.197Z,98928.56
2018-03-06T10:23:45.117Z,98923.95
2018-03-06T10:26:10.936Z,98923.79
2018-03-06T10:28:36.736Z,98917.70
2018-03-06T10:31:02.611Z,98918.62
2018-03-06T10:33:28.446Z,98912.67
2018-03-06T10:35:54.264Z,98915.09
2018-03-06T10:38:20.399Z,98911.17
2018-03-06T10:40:46.233Z,98909.19
2018-03-06T10:43:12.023Z,98903.77
2018-03-06T10:45:37.819Z,98904.07
2018-03-06T10:48:03.652Z,98895.30
2018-03-06T10:50:29.476Z,98898.89
2018-03-06T10:52:55.259Z,98898.22
2018-03-06T10:55:21.101Z,98897.92
2018-03-06T10:57:46.900Z,98892.91
2018-03-06T11:00:12.715Z,98896.77
2018-03-06T11:02:41.511Z,98891.14
2018-03-06T11:05:07.328Z,98891.31
2018-03-06T11:07:33.111Z,98880.13
2018-03-06T11:09:58.923Z,98877.92
2018-03-06T11:12:25.065Z,98879.38
2018-03-06T11:14:50.882Z,98878.05
2018-03-06T11:17:16.667Z,98883.54
2018-03-06T11:19:42.507Z,98879.81
2018-03-06T11:22:08.315Z,98880.67
2018-03-06T11:24:34.186Z,98886.15
2018-03-06T11:27:00.995Z,98883.48
2018-03-06T11:29:26.910Z,98881.84
2018-03-06T11:31:52.708Z,98879.82
2018-03-06T11:34:18.611Z,98873.31
2018-03-06T11:36:44.709Z,98875.74
2018-03-06T11:39:10.560Z,98872.81
2018-03-06T11:41:36.384Z,98872.98
2018-03-06T11:44:02.505Z,98869.59
2018-03-06T11:46:28.299Z,98861.22
2018-03-06T11:48:54.094Z,98858.81
2018-03-06T11:51:20.187Z,98859.50
2018-03-06T11:53:46.012Z,98859.16
2018-03-06T11:56:11.807Z,98861.61
2018-03-06T11:58:38.030Z,98854.94
2018-03-06T12:01:03.835Z,98847.14
2018-03-06T12:03:29.624Z,98857.08
2018-03-06T12:05:55.582Z,98854.88
2018-03-06T12:08:21.384Z,98851.64
2018-03-06T12:10:47.755Z,98851.80
2018-03-06T12:13:13.571Z,98852.84
2018-03-06T12:15:39.393Z,98849.80
2018-03-06T12:18:05.210Z,98846.78
2018-03-06T12:20:31.007Z,98847.73
2018-03-06T12:22:56.820Z,98845.79
2018-03-06T12:25:22.603Z,98839.83
2018-03-06T12:27:48.473Z,98836.19
2018-03-06T12:30:14.287Z,98834.89
2018-03-06T12:32:40.092Z,98836.06
2018-03-06T12:35:06.795Z,98833.11
2018-03-06T12:37:32.609Z,98828.55
2018-03-06T12:39:58.446Z,98822.36
2018-03-06T12:42:24.245Z,98828.28
2018-03-06T12:44:50.426Z,98831.24
2018-03-06T12:47:16.243Z,98818.65
2018-03-06T12:49:42.039Z,98822.77
2018-03-06T12:52:07.956Z,98819.67
2018-03-06T12:54:34.791Z,98819.95
2018-03-06T12:57:00.600Z,98813.95
2018-03-06T12:59:26.398Z,98811.00
2018-03-06T13:01:52.210Z,98804.61
2018-03-06T13:04:18.043Z,98812.87
2018-03-06T13:06:43.846Z,98808.69
2018-03-06T13:09:09.651Z,98806.59
2018-03-06T13:11:35.449Z,98801.41
2018-03-06T13:14:01.259Z,98798.41
2018-03-06T13:16:27.061Z,98797.95
2018-03-06T13:18:52.907Z,98795.95
2018-03-06T13:21:18.735Z,98799.13
2018-03-06T13:23:44.552Z,98792.88
2018-03-06T13:26:10.460Z,98792.44
2018-03-06T13:28:36.471Z,98789.39
2018-03-06T13:31:02.291Z,98791.31
2018-03-06T13:33:28.115Z,98791.66
2018-03-06T13:35:53.993Z,98792.20
2018-03-06T13:38:19.849Z,98786.48
2018-03-06T13:40:45.660Z,98785.91
2018-03-06T13:43:11.468Z,98790.72
2018-03-06T13:45:37.266Z,98787.72
2018-03-06T13:48:03.136Z,98792.66
2018-03-06T13:50:28.976Z,98787.37
2018-03-06T13:52:54.828Z,98784.08
2018-03-06T13:55:20.624Z,98788.41
2018-03-06T13:57:46.410Z,98786.12
2018-03-06T14:00:12.421Z,98788.45
2018-03-06T14:02:38.270Z,98781.33
2018-03-06T14:05:04.071Z,98785.31
2018-03-06T14:07:29.895Z,98782.72
2018-03-06T14:09:55.699Z,98783.67
2018-03-06T14:12:21.495Z,98791.58
2018-03-06T14:14:47.456Z,98783.52
2018-03-06T14:17:13.272Z,98789.06
2018-03-06T14:19:39.069Z,98787.96
2018-03-06T14:22:04.943Z,98788.20
2018-03-06T14:24:30.728Z,98776.81
2018-03-06T14:26:57.977Z,98775.55
2018-03-06T14:29:24.083Z,98779.64
2018-03-06T14:31:49.882Z,98778.42
2018-03-06T14:34:15.699Z,98769.73
2018-03-06T14:36:42.468Z,98772.72
2018-03-06T14:39:08.281Z,98764.70
2018-03-06T14:41:34.108Z,98771.34
2018-03-06T14:44:00.638Z,98768.39
2018-03-06T14:46:26.551Z,98759.78
2018-03-06T14:48:52.635Z,98750.72
2018-03-06T14:51:19.515Z,98769.02
2018-03-06T14:53:45.322Z,98768.05
2018-03-06T14:56:11.137Z,98769.88
2018-03-06T14:58:36.937Z,98772.53
2018-03-06T15:01:02.748Z,98768.36
2018-03-06T15:03:28.555Z,98768.80
2018-03-06T15:05:54.346Z,98766.89
2018-03-06T15:08:20.136Z,98764.61
2018-03-06T15:10:46.266Z,98772.23
2018-03-06T15:13:12.049Z,98773.41
2018-03-06T15:15:37.840Z,98768.05
2018-03-06T15:18:03.636Z,98767.89
2018-03-06T15:20:29.431Z,98774.27
2018-03-06T15:22:55.233Z,98769.02
2018-03-06T15:25:21.012Z,98771.22
2018-03-06T15:27:46.816Z,98773.87
2018-03-06T15:30:12.627Z,98769.41
2018-03-06T15:32:38.415Z,98768.00
2018-03-06T15:35:04.203Z,98771.21
2018-03-06T15:37:30.322Z,98768.96
2018-03-06T15:39:56.101Z,98770.89
2018-03-06T15:42:21.895Z,98766.18
2018-03-06T15:44:47.707Z,98767.70
2018-03-06T15:47:13.487Z,98760.13
2018-03-06T15:49:39.271Z,98764.27
2018-03-06T15:52:05.381Z,98769.03
2018-03-06T15:54:31.205Z,98762.45
2018-03-06T15:56:57.007Z,98763.42
2018-03-06T15:59:22.811Z,98760.32
2018-03-06T16:01:48.967Z,98752.09
2018-03-06T16:04:14.747Z,98757.23
2018-03-06T16:06:40.526Z,98759.65
2018-03-06T16:09:06.325Z,98765.83
2018-03-06T16:11:32.109Z,98763.69
2018-03-06T16:13:57.887Z,98767.63
2018-03-06T16:16:23.692Z,98766.40
2018-03-06T16:18:49.479Z,98763.17
2018-03-06T16:21:15.258Z,98767.02
2018-03-06T16:23:41.068Z,98772.91
2018-03-06T16:26:06.861Z,98773.81
2018-03-06T16:28:32.638Z,98769.81
2018-03-06T16:30:59.009Z,98779.35
2018-03-06T16:33:24.790Z,98779.95
2018-03-06T16:35:50.580Z,98779.25
2018-03-06T16:38:16.391Z,98778.40
2018-03-06T16:40:42.171Z,98781.34
2018-03-06T16:43:08.507Z,98782.34
2018-03-06T16:45:34.534Z,98784.61
2018-03-06T16:48:00.319Z,98780.36
2018-03-06T16:50:26.107Z,98775.82
2018-03-06T16:52:51.940Z,98784.80
2018-03-06T16:55:18.660Z,98785.17
2018-03-06T16:57:44.447Z,98787.64
2018-03-06T17:00:10.545Z,98783.59
2018-03-06T17:02:36.332Z,98786.51
2018-03-06T17:05:02.144Z,98785.60
2018-03-06T17:07:27.949Z,98792.66
2018-03-06T17:09:53.728Z,98796.73
2018-03-06T17:12:19.498Z,98794.73
2018-03-06T17:14:45.634Z,98791.24
2018-03-06T17:17:11.477Z,98793.31
2018-03-06T17:19:37.251Z,98797.30
2018-03-06T17:22:03.076Z,98800.62
2018-03-06T17:24:28.852Z,98801.98
2018-03-06T17:26:54.634Z,98806.94
2018-03-06T17:29:20.416Z,98809.19
2018-03-06T17:31:46.192Z,98807.36
2018-03-06T17:34:11.991Z,98802.55
2018-03-06T17:36:37.778Z,98807.39
2018-03-06T17:39:03.588Z,98804.77
2018-03-06T17:41:29.380Z,98805.53
2018-03-06T17:43:55.463Z,98812.05
2018-03-06T17:46:21.263Z,98803.23
2018-03-06T17:48:47.048Z,98808.52
2018-03-06T17:51:12.857Z,98806.59
2018-03-06T17:53:38.664Z,98810.39
2018-03-06T17:56:04.480Z,98812.17
2018-03-06T17:58:30.548Z,98814.86
2018-03-06T18:00:56.353Z,98816.33
2018-03-06T18:03:22.140Z,98813.28
2018-03-06T18:05:47.956Z,98812.86
2018-03-06T18:08:13.736Z,98814.49
2018-03-06T18:10:39.540Z,98817.51
2018-03-06T18:13:05.336Z,98820.06
2018-03-06T18:15:31.129Z,98820.81
2018-03-06T18:17:56.904Z,98824.09
2018-03-06T18:20:22.967Z,98821.72
2018-03-06T18:22:48.774Z,98823.75
2018-03-06T18:25:14.564Z,98823.19
2018-03-06T18:27:40.623Z,98826.95
2018-03-06T18:30:06.425Z,98824.05
2018-03-06T18:32:32.224Z,98826.66
2018-03-06T18:34:58.034Z,98826.38
2018-03-06T18:37:23.885Z,98832.91
2018-03-06T18:39:49.664Z,98831.59
2018-03-06T18:42:15.449Z,98824.02
2018-03-06T18:44:41.227Z,98834.92
2018-03-06T18:47:07.401Z,98832.38
2018-03-06T18:49:33.216Z,98843.37
2018-03-06T18:51:59.016Z,98841.43
2018-03-06T18:54:24.855Z,98839.16
2018-03-06T18:56:50.651Z,98837.31
2018-03-06T18:59:16.493Z,98836.10
2018-03-06T19:02:13.052Z,98841.21
2018-03-06T19:07:38.853Z,98841.31
2018-03-06T19:10:04.642Z,98847.84
2018-03-06T19:12:30.447Z,98843.83
2018-03-06T19:14:56.222Z,98839.19
2018-03-06T19:17:22.008Z,98841.45
2018-03-06T19:19:47.798Z,98838.72
2018-03-06T19:22:13.590Z,98840.02
2018-03-06T19:24:39.376Z,98842.93
2018-03-06T19:27:05.196Z,98844.45
2018-03-06T19:29:30.999Z,98848.17
2018-03-06T19:31:56.788Z,98850.62
2018-03-06T19:34:22.675Z,98841.67
2018-03-06T19:36:48.466Z,98842.20
2018-03-06T19:39:14.268Z,98841.03
2018-03-06T19:41:40.400Z,98838.75
2018-03-06T19:44:06.203Z,98841.59
2018-03-06T19:46:31.992Z,98840.66
2018-03-06T19:48:57.796Z,98840.48
2018-03-06T19:51:23.579Z,98847.88
2018-03-06T19:53:49.378Z,98838.09
2018-03-06T19:56:15.176Z,98843.77
2018-03-06T19:58:40.962Z,98844.98
2018-03-06T20:01:06.744Z,98848.34
2018-03-06T20:03:32.543Z,98848.88
2018-03-06T20:05:58.330Z,98852.27
2018-03-06T20:08:24.125Z,98854.52
2018-03-06T20:10:49.955Z,98850.50
2018-03-06T20:13:15.760Z,98846.62
2018-03-06T20:15:41.687Z,98850.16
2018-03-06T20:18:07.558Z,98850.34
2018-03-06T20:20:33.390Z,98848.41
2018-03-06T20:22:59.304Z,98851.58
2018-03-06T20:25:31.256Z,98847.86
2018-03-06T20:27:57.086Z,98846.16
2018-03-06T20:30:28.944Z,98847.20
2018-03-06T20:33:00.792Z,98846.29
2018-03-06T20:35:26.596Z,98844.92
2018-03-06T20:37:52.557Z,98840.97
2018-03-06T20:40:24.440Z,98841.05
2018-03-06T20:42:50.323Z,98845.43
2018-03-06T20:45:16.106Z,98840.95
2018-03-06T20:47:42.289Z,98840.11
2018-03-06T20:50:08.103Z,98838.28
2018-03-06T20:52:39.869Z,98843.15
2018-03-06T20:55:06.765Z,98839.11
2018-03-06T20:57:32.614Z,98844.16
2018-03-06T20:59:58.559Z,98856.70
2018-03-06T21:02:24.660Z,98851.64
2018-03-06T21:04:50.722Z,98848.13
2018-03-06T21:07:16.558Z,98850.41
2018-03-06T21:09:42.483Z,98845.04
2018-03-06T21:12:08.295Z,98847.20
2018-03-06T21:14:34.131Z,98838.34
2018-03-06T21:16:59.944Z,98841.30
2018-03-06T21:19:25.786Z,98841.58
2018-03-06T21:21:51.586Z,98835.72
2018-03-06T21:24:17.412Z,98834.17
2018-03-06T21:26:43.541Z,98839.91
2018-03-06T21:29:09.382Z,98833.03
2018-03-06T21:31:35.374Z,98832.66
2018-03-06T21:34:01.181Z,98837.23
2018-03-06T21:36:27.027Z,98835.20
2018-03-06T21:38:52.848Z,98837.75
2018-03-06T21:41:18.654Z,98838.88
2018-03-06T21:43:44.468Z,98839.03
2018-03-06T21:46:10.283Z,98839.45
2018-03-06T21:48:36.069Z,98839.88
2018-03-06T21:51:01.891Z,98839.95
2018-03-06T21:53:27.711Z,98833.83
2018-03-06T21:55:53.530Z,98835.70
2018-03-06T21:58:21.159Z,98838.45
2018-03-06T22:00:47.576Z,98834.13
2018-03-06T22:03:13.389Z,98827.11
2018-03-06T22:05:39.217Z,98834.28
2018-03-06T22:08:05.053Z,98829.28
2018-03-06T22:10:30.867Z,98831.38
2018-03-06T22:12:56.662Z,98826.30
2018-03-06T22:15:22.459Z,98827.42
2018-03-06T22:17:48.308Z,98832.03
2018-03-06T22:20:14.223Z,98830.28
2018-03-06T22:22:40.025Z,98828.27
2018-03-06T22:25:05.827Z,98829.89
2018-03-06T22:27:31.636Z,98838.03
2018-03-06T22:29:57.432Z,98838.05
2018-03-06T22:32:23.219Z,98834.02
2018-03-06T22:34:49.008Z,98832.89
2018-03-06T22:37:14.780Z,98837.16
2018-03-06T22:39:40.587Z,98835.83
2018-03-06T22:42:06.391Z,98835.73
2018-03-06T22:44:32.199Z,98830.38
2018-03-06T22:46:58.016Z,98837.63
2018-03-06T22:49:23.920Z,98836.94
2018-03-06T22:51:49.721Z,98839.75
2018-03-06T22:54:15.545Z,98837.23
2018-03-06T22:56:41.348Z,98846.46
2018-03-06T22:59:07.140Z,98841.41
2018-03-06T23:01:33.528Z,98844.86
2018-03-06T23:03:59.320Z,98836.81
2018-03-06T23:06:25.132Z,98836.30
2018-03-06T23:08:51.096Z,98840.39
2018-03-06T23:11:17.688Z,98841.72
2018-03-06T23:13:44.655Z,98840.00
2018-03-06T23:16:10.506Z,98836.48
2018-03-06T23:18:36.340Z,98839.27
2018-03-06T23:21:02.158Z,98838.44
2018-03-06T23:23:28.149Z,98850.87
2018-03-06T23:25:53.977Z,98843.36
2018-03-06T23:28:19.849Z,98840.11
2018-03-06T23:30:46.084Z,98845.39
2018-03-06T23:33:11.940Z,98847.36
2018-03-06T23:35:37.748Z,98847.71
2018-03-06T23:38:04.875Z,98851.81
2018-03-06T23:40:32.869Z,98850.84
2018-03-06T23:42:58.788Z,98849.15
2018-03-06T23:45:24.813Z,98849.20
2018-03-06T23:47:51.071Z,98851.97
2018-03-06T23:50:16.929Z,98852.94
2018-03-06T23:52:43.044Z,98849.42
2018-03-06T23:55:08.835Z,98846.63
2018-03-06T23:57:34.753Z,98849.00
